»·PEaware :: N7900Y KRNM-KONT

N7900Y :: KRNM-KONT

FLIGHT INFORMATION

Flight Status: Arrived
Operator: Privately registered:
United States
More flights under this callsign
Pilot: Joerg P. (23850)
Aircraft: PIPER PA-30 TWIN COMANCHE
(PA30)
More flights by this aircraft type
Origin: KRNM Ramona
United States
Destination: KONT Ontario Intl
United States
More flights between these airports :: More routes between these airports
Route: +ROBNN V208 OCN V23 DANAH V363 POXKU V8 PDZ
File this flight plan on PilotEdge
Remarks: +CW / TEC SANP19 ZULU WEATHER SAME WINDS AS ACTUAL BUT IMC
Altitude:
(Current/Filed)
6,000ft
Speed:
(Current/Filed)
150kts
Departed: 24-Sep-19 03:49 PM
Arrived: 24-Sep-19 04:33 PM
Distance/Time
Traveled:
70nm/0:44
Distance/Time
To Go:
Arrived

Flight Plot

Page will automatically refresh every two minutes.


Map Options




Map Legend


Flown Route
Filed Route
Departure Airport
Arrival Airport
Navaid (VOR, NDB)
Fix

Horizontal Profiles

Position Reports

Time Latitude Longitude Heading Altitude Ground
Speed
24-Sep-19 15:37 33.039293 -116.908024 275 1398ft 0kts
24-Sep-19 15:38 33.039293 -116.908024 275 1398ft 0kts
24-Sep-19 15:39 33.039293 -116.908024 275 1398ft 0kts
24-Sep-19 15:40 33.039293 -116.908024 275 1398ft 0kts
24-Sep-19 15:41 33.039293 -116.908024 275 1398ft 0kts
24-Sep-19 15:42 33.039293 -116.908024 275 1398ft 0kts
24-Sep-19 15:43 33.039293 -116.908024 275 1398ft 0kts
24-Sep-19 15:45 33.039293 -116.908024 275 1398ft 0kts
24-Sep-19 15:45 33.039293 -116.908024 275 1398ft 0kts
24-Sep-19 15:46 33.038451 -116.907260 189 1398ft 0kts
24-Sep-19 15:47 33.038427 -116.907266 190 1398ft 2kts
24-Sep-19 15:48 33.040879 -116.927704 280 1830ft 109kts
24-Sep-19 15:49 33.047251 -116.960873 333 3142ft 87kts
24-Sep-19 15:50 33.059034 -116.940339 141 4153ft 116kts
24-Sep-19 15:51 33.027394 -116.942806 207 5257ft 120kts
24-Sep-19 15:52 33.018283 -116.959538 286 5732ft 120kts
24-Sep-19 15:53 33.032993 -117.022293 295 6035ft 145kts
24-Sep-19 15:54 33.051356 -117.069454 302 6000ft 154kts
24-Sep-19 15:55 33.076042 -117.112151 309 5970ft 152kts
24-Sep-19 15:56 33.105277 -117.148541 315 6005ft 150kts
24-Sep-19 15:57 33.133249 -117.187232 305 5981ft 152kts
24-Sep-19 15:58 33.150181 -117.234367 290 6006ft 153kts
24-Sep-19 15:59 33.168404 -117.280712 310 6043ft 149kts
24-Sep-19 16:00 33.192775 -117.322237 301 6064ft 151kts
24-Sep-19 16:01 33.212711 -117.367367 310 6056ft 150kts
24-Sep-19 16:02 33.236306 -117.409651 300 6069ft 152kts
24-Sep-19 16:03 33.265673 -117.445437 319 6055ft 150kts
24-Sep-19 16:04 33.298030 -117.478233 325 6028ft 150kts
24-Sep-19 16:05 33.330241 -117.509973 316 6089ft 148kts
24-Sep-19 16:06 33.358097 -117.548242 301 6083ft 152kts
24-Sep-19 16:07 33.382642 -117.590123 316 6047ft 151kts
24-Sep-19 16:08 33.414139 -117.624131 319 6013ft 152kts
24-Sep-19 16:09 33.446792 -117.656760 318 6005ft 150kts
24-Sep-19 16:10 33.478027 -117.689497 342 6028ft 147kts
24-Sep-19 16:11 33.517686 -117.703281 346 6037ft 145kts
24-Sep-19 16:12 33.557683 -117.712898 353 6088ft 143kts
24-Sep-19 16:13 33.598646 -117.716544 356 6056ft 145kts
24-Sep-19 16:14 33.638985 -117.725670 344 6048ft 145kts
24-Sep-19 16:15 33.679097 -117.734430 353 6056ft 145kts
24-Sep-19 16:16 33.718664 -117.748845 352 6028ft 147kts
24-Sep-19 16:17 33.759770 -117.752258 359 6029ft 144kts
24-Sep-19 16:18 33.800197 -117.758707 352 6065ft 144kts
24-Sep-19 16:19 33.840324 -117.767798 348 6067ft 145kts
24-Sep-19 16:20 33.880164 -117.778481 322 5771ft 151kts
24-Sep-19 16:21 33.916358 -117.812880 322 4786ft 169kts
24-Sep-19 16:22 33.953601 -117.848146 319 4093ft 161kts
24-Sep-19 16:23 33.988275 -117.878646 327 4057ft 139kts
24-Sep-19 16:24 34.022570 -117.906218 324 4009ft 144kts
24-Sep-19 16:25 34.058498 -117.906972 61 3938ft 150kts
24-Sep-19 16:26 34.055715 -117.858115 100 4081ft 151kts
24-Sep-19 16:27 34.055077 -117.806923 87 3959ft 157kts
24-Sep-19 16:28 34.055910 -117.754109 85 3337ft 160kts
24-Sep-19 16:29 34.056374 -117.700580 86 2379ft 141kts
24-Sep-19 16:30 34.056322 -117.665515 87 1687ft 88kts
24-Sep-19 16:31 34.056718 -117.636798 82 1251ft 84kts
24-Sep-19 16:32 34.057435 -117.616158 0 946ft 18kts

Navigation Log

Ident Type
Flight plan parsing failed, navigation log unavailable